sensor_id;sensor_type;location;lat;lon;timestamp;P1;durP1;ratioP1;P2;durP2;ratioP2
64686;SDS011;51113;53.646;-113.674;2022-08-14T00:00:01;7.28;;;1.92;;
64686;SDS011;51113;53.646;-113.674;2022-08-14T00:02:41;3.67;;;1.70;;
64686;SDS011;51113;53.646;-113.674;2022-08-14T00:05:13;4.47;;;1.90;;
64686;SDS011;51113;53.646;-113.674;2022-08-14T00:10:17;9.13;;;1.92;;
64686;SDS011;51113;53.646;-113.674;2022-08-14T00:13:08;7.35;;;1.83;;
64686;SDS011;51113;53.646;-113.674;2022-08-14T00:15:40;10.93;;;2.30;;
64686;SDS011;51113;53.646;-113.674;2022-08-14T00:18:15;2.72;;;1.50;;
64686;SDS011;51113;53.646;-113.674;2022-08-14T00:21:08;9.15;;;2.25;;
64686;SDS011;51113;53.646;-113.674;2022-08-14T00:23:37;5.35;;;1.95;;
64686;SDS011;51113;53.646;-113.674;2022-08-14T00:26:06;5.30;;;2.08;;
64686;SDS011;51113;53.646;-113.674;2022-08-14T00:28:49;10.23;;;2.55;;
64686;SDS011;51113;53.646;-113.674;2022-08-14T00:31:19;9.60;;;2.00;;
64686;SDS011;51113;53.646;-113.674;2022-08-14T00:34:08;8.32;;;2.03;;
64686;SDS011;51113;53.646;-113.674;2022-08-14T00:36:57;16.38;;;2.60;;
64686;SDS011;51113;53.646;-113.674;2022-08-14T00:39:27;7.35;;;2.05;;
64686;SDS011;51113;53.646;-113.674;2022-08-14T00:41:55;9.50;;;2.00;;
64686;SDS011;51113;53.646;-113.674;2022-08-14T00:44:26;3.78;;;2.17;;
64686;SDS011;51113;53.646;-113.674;2022-08-14T00:49:36;3.78;;;1.85;;
64686;SDS011;51113;53.646;-113.674;2022-08-14T00:52:10;5.10;;;2.05;;
64686;SDS011;51113;53.646;-113.674;2022-08-14T00:54:44;12.75;;;2.60;;
64686;SDS011;51113;53.646;-113.674;2022-08-14T00:57:28;14.85;;;2.33;;
64686;SDS011;51113;53.646;-113.674;2022-08-14T01:00:01;11.63;;;3.08;;
64686;SDS011;51113;53.646;-113.674;2022-08-14T01:02:53;9.77;;;2.10;;
64686;SDS011;51113;53.646;-113.674;2022-08-14T01:05:24;11.93;;;2.45;;
64686;SDS011;51113;53.646;-113.674;2022-08-14T01:08:07;6.57;;;2.42;;
64686;SDS011;51113;53.646;-113.674;2022-08-14T01:10:58;4.82;;;2.35;;
64686;SDS011;51113;53.646;-113.674;2022-08-14T01:13:29;13.68;;;2.45;;
64686;SDS011;51113;53.646;-113.674;2022-08-14T01:16:17;4.63;;;2.00;;
64686;SDS011;51113;53.646;-113.674;2022-08-14T01:18:53;5.25;;;2.95;;
64686;SDS011;51113;53.646;-113.674;2022-08-14T01:22:00;6.70;;;2.45;;
64686;SDS011;51113;53.646;-113.674;2022-08-14T01:24:30;9.43;;;2.47;;
64686;SDS011;51113;53.646;-113.674;2022-08-14T01:27:00;8.23;;;2.70;;
64686;SDS011;51113;53.646;-113.674;2022-08-14T01:29:32;6.50;;;2.40;;
64686;SDS011;51113;53.646;-113.674;2022-08-14T01:32:24;11.57;;;2.50;;
64686;SDS011;51113;53.646;-113.674;2022-08-14T01:34:55;8.32;;;2.30;;
64686;SDS011;51113;53.646;-113.674;2022-08-14T01:37:45;13.35;;;2.90;;
64686;SDS011;51113;53.646;-113.674;2022-08-14T01:40:25;10.43;;;2.63;;
64686;SDS011;51113;53.646;-113.674;2022-08-14T01:43:07;14.10;;;2.60;;
64686;SDS011;51113;53.646;-113.674;2022-08-14T01:45:52;11.93;;;3.85;;
64686;SDS011;51113;53.646;-113.674;2022-08-14T01:48:32;3.88;;;2.28;;
64686;SDS011;51113;53.646;-113.674;2022-08-14T01:51:06;9.48;;;2.67;;
64686;SDS011;51113;53.646;-113.674;2022-08-14T01:53:46;7.03;;;2.70;;
64686;SDS011;51113;53.646;-113.674;2022-08-14T01:56:25;10.82;;;2.58;;
64686;SDS011;51113;53.646;-113.674;2022-08-14T02:01:52;7.78;;;2.78;;
64686;SDS011;51113;53.646;-113.674;2022-08-14T02:04:26;6.25;;;2.60;;
64686;SDS011;51113;53.646;-113.674;2022-08-14T02:07:19;11.63;;;2.80;;
64686;SDS011;51113;53.646;-113.674;2022-08-14T02:10:08;7.63;;;2.33;;
64686;SDS011;51113;53.646;-113.674;2022-08-14T02:12:41;7.70;;;2.60;;
64686;SDS011;51113;53.646;-113.674;2022-08-14T02:15:19;9.05;;;3.05;;
64686;SDS011;51113;53.646;-113.674;2022-08-14T02:17:49;7.03;;;3.30;;
64686;SDS011;51113;53.646;-113.674;2022-08-14T02:20:17;6.35;;;2.67;;
64686;SDS011;51113;53.646;-113.674;2022-08-14T02:22:50;8.45;;;2.75;;
64686;SDS011;51113;53.646;-113.674;2022-08-14T02:25:20;7.68;;;2.92;;
64686;SDS011;51113;53.646;-113.674;2022-08-14T02:27:55;8.45;;;2.90;;
64686;SDS011;51113;53.646;-113.674;2022-08-14T02:30:44;73.75;;;5.10;;
64686;SDS011;51113;53.646;-113.674;2022-08-14T02:33:12;29.10;;;2.38;;
64686;SDS011;51113;53.646;-113.674;2022-08-14T02:35:41;23.05;;;2.47;;
64686;SDS011;51113;53.646;-113.674;2022-08-14T02:38:21;37.95;;;3.22;;
64686;SDS011;51113;53.646;-113.674;2022-08-14T02:40:59;15.57;;;1.70;;
64686;SDS011;51113;53.646;-113.674;2022-08-14T02:43:34;26.75;;;2.40;;
64686;SDS011;51113;53.646;-113.674;2022-08-14T02:46:14;11.60;;;1.95;;
64686;SDS011;51113;53.646;-113.674;2022-08-14T02:48:52;18.00;;;2.38;;
64686;SDS011;51113;53.646;-113.674;2022-08-14T02:51:30;19.77;;;2.00;;
64686;SDS011;51113;53.646;-113.674;2022-08-14T02:54:03;16.92;;;1.48;;
64686;SDS011;51113;53.646;-113.674;2022-08-14T02:56:37;7.50;;;1.80;;
64686;SDS011;51113;53.646;-113.674;2022-08-14T02:59:26;15.95;;;2.10;;
64686;SDS011;51113;53.646;-113.674;2022-08-14T03:02:00;9.60;;;1.95;;
64686;SDS011;51113;53.646;-113.674;2022-08-14T03:04:30;19.17;;;1.73;;
64686;SDS011;51113;53.646;-113.674;2022-08-14T03:07:00;10.60;;;1.55;;
64686;SDS011;51113;53.646;-113.674;2022-08-14T03:09:34;10.88;;;1.60;;
64686;SDS011;51113;53.646;-113.674;2022-08-14T03:12:26;6.45;;;1.33;;
64686;SDS011;51113;53.646;-113.674;2022-08-14T03:15:01;10.10;;;1.73;;
64686;SDS011;51113;53.646;-113.674;2022-08-14T03:17:41;11.43;;;1.70;;
64686;SDS011;51113;53.646;-113.674;2022-08-14T03:20:23;27.92;;;2.05;;
64686;SDS011;51113;53.646;-113.674;2022-08-14T03:22:55;10.17;;;1.60;;
64686;SDS011;51113;53.646;-113.674;2022-08-14T03:25:29;9.43;;;1.65;;
64686;SDS011;51113;53.646;-113.674;2022-08-14T03:28:04;14.88;;;2.00;;
64686;SDS011;51113;53.646;-113.674;2022-08-14T03:30:54;28.10;;;2.42;;
64686;SDS011;51113;53.646;-113.674;2022-08-14T03:33:27;5.45;;;1.88;;
64686;SDS011;51113;53.646;-113.674;2022-08-14T03:36:12;7.05;;;1.65;;
64686;SDS011;51113;53.646;-113.674;2022-08-14T03:39:04;8.48;;;1.58;;
64686;SDS011;51113;53.646;-113.674;2022-08-14T03:41:46;10.77;;;1.70;;
64686;SDS011;51113;53.646;-113.674;2022-08-14T03:44:27;6.93;;;1.38;;
64686;SDS011;51113;53.646;-113.674;2022-08-14T03:47:16;7.03;;;1.33;;
64686;SDS011;51113;53.646;-113.674;2022-08-14T03:49:45;6.70;;;1.40;;
64686;SDS011;51113;53.646;-113.674;2022-08-14T03:52:15;6.47;;;1.70;;
64686;SDS011;51113;53.646;-113.674;2022-08-14T03:55:05;5.80;;;1.48;;
64686;SDS011;51113;53.646;-113.674;2022-08-14T03:57:40;6.65;;;1.27;;
64686;SDS011;51113;53.646;-113.674;2022-08-14T04:03:00;17.85;;;1.42;;
64686;SDS011;51113;53.646;-113.674;2022-08-14T04:05:33;14.02;;;1.50;;
64686;SDS011;51113;53.646;-113.674;2022-08-14T04:08:15;8.95;;;1.55;;
64686;SDS011;51113;53.646;-113.674;2022-08-14T04:10:59;11.20;;;1.17;;
64686;SDS011;51113;53.646;-113.674;2022-08-14T04:13:37;8.40;;;1.70;;
64686;SDS011;51113;53.646;-113.674;2022-08-14T04:16:09;6.95;;;1.55;;
64686;SDS011;51113;53.646;-113.674;2022-08-14T04:18:40;6.03;;;1.35;;
64686;SDS011;51113;53.646;-113.674;2022-08-14T04:21:14;6.70;;;1.30;;
64686;SDS011;51113;53.646;-113.674;2022-08-14T04:23:44;3.08;;;1.40;;
64686;SDS011;51113;53.646;-113.674;2022-08-14T04:26:24;5.22;;;1.10;;
64686;SDS011;51113;53.646;-113.674;2022-08-14T04:29:08;4.28;;;1.15;;
64686;SDS011;51113;53.646;-113.674;2022-08-14T04:31:41;2.55;;;1.00;;
64686;SDS011;51113;53.646;-113.674;2022-08-14T04:34:29;10.80;;;1.75;;
64686;SDS011;51113;53.646;-113.674;2022-08-14T04:37:01;12.07;;;1.70;;
64686;SDS011;51113;53.646;-113.674;2022-08-14T04:39:51;9.20;;;1.42;;
64686;SDS011;51113;53.646;-113.674;2022-08-14T04:42:40;7.85;;;1.40;;
64686;SDS011;51113;53.646;-113.674;2022-08-14T04:45:27;9.95;;;1.70;;
64686;SDS011;51113;53.646;-113.674;2022-08-14T04:48:09;8.93;;;1.80;;
64686;SDS011;51113;53.646;-113.674;2022-08-14T04:51:03;21.55;;;2.38;;
64686;SDS011;51113;53.646;-113.674;2022-08-14T04:53:36;36.42;;;2.08;;
64686;SDS011;51113;53.646;-113.674;2022-08-14T04:56:13;15.60;;;1.55;;
64686;SDS011;51113;53.646;-113.674;2022-08-14T04:59:02;20.15;;;2.10;;
64686;SDS011;51113;53.646;-113.674;2022-08-14T05:01:37;12.80;;;1.58;;
64686;SDS011;51113;53.646;-113.674;2022-08-14T05:04:17;30.83;;;2.25;;
64686;SDS011;51113;53.646;-113.674;2022-08-14T05:06:50;38.88;;;3.10;;
64686;SDS011;51113;53.646;-113.674;2022-08-14T05:09:21;30.75;;;2.42;;
64686;SDS011;51113;53.646;-113.674;2022-08-14T05:11:55;43.63;;;2.60;;
64686;SDS011;51113;53.646;-113.674;2022-08-14T05:14:44;12.18;;;2.10;;
64686;SDS011;51113;53.646;-113.674;2022-08-14T05:17:21;24.35;;;2.67;;
64686;SDS011;51113;53.646;-113.674;2022-08-14T05:20:10;12.05;;;1.85;;
64686;SDS011;51113;53.646;-113.674;2022-08-14T05:22:59;11.65;;;1.60;;
64686;SDS011;51113;53.646;-113.674;2022-08-14T05:25:29;16.00;;;1.33;;
64686;SDS011;51113;53.646;-113.674;2022-08-14T05:28:16;13.32;;;1.55;;
64686;SDS011;51113;53.646;-113.674;2022-08-14T05:30:49;4.18;;;1.20;;
64686;SDS011;51113;53.646;-113.674;2022-08-14T05:33:23;15.77;;;1.42;;
64686;SDS011;51113;53.646;-113.674;2022-08-14T05:35:54;8.35;;;1.58;;
64686;SDS011;51113;53.646;-113.674;2022-08-14T05:38:32;16.02;;;1.88;;
64686;SDS011;51113;53.646;-113.674;2022-08-14T05:41:04;2.78;;;1.27;;
64686;SDS011;51113;53.646;-113.674;2022-08-14T05:43:37;17.85;;;1.60;;
64686;SDS011;51113;53.646;-113.674;2022-08-14T05:46:10;10.23;;;2.00;;
64686;SDS011;51113;53.646;-113.674;2022-08-14T05:48:40;4.72;;;1.20;;
64686;SDS011;51113;53.646;-113.674;2022-08-14T05:51:10;11.20;;;1.80;;
64686;SDS011;51113;53.646;-113.674;2022-08-14T05:53:40;13.68;;;1.50;;
64686;SDS011;51113;53.646;-113.674;2022-08-14T05:56:27;11.32;;;1.27;;
64686;SDS011;51113;53.646;-113.674;2022-08-14T05:58:56;12.75;;;1.50;;
64686;SDS011;51113;53.646;-113.674;2022-08-14T06:01:26;11.50;;;1.95;;
64686;SDS011;51113;53.646;-113.674;2022-08-14T06:03:57;7.28;;;1.20;;
64686;SDS011;51113;53.646;-113.674;2022-08-14T06:06:30;9.95;;;1.73;;
64686;SDS011;51113;53.646;-113.674;2022-08-14T06:09:04;5.55;;;1.40;;
64686;SDS011;51113;53.646;-113.674;2022-08-14T06:11:35;6.20;;;1.20;;
64686;SDS011;51113;53.646;-113.674;2022-08-14T06:14:04;6.47;;;1.42;;
64686;SDS011;51113;53.646;-113.674;2022-08-14T06:16:47;4.60;;;1.20;;
64686;SDS011;51113;53.646;-113.674;2022-08-14T06:19:18;8.73;;;1.30;;
64686;SDS011;51113;53.646;-113.674;2022-08-14T06:21:49;3.20;;;1.30;;
64686;SDS011;51113;53.646;-113.674;2022-08-14T06:24:24;6.72;;;1.30;;
64686;SDS011;51113;53.646;-113.674;2022-08-14T06:27:00;4.13;;;1.20;;
64686;SDS011;51113;53.646;-113.674;2022-08-14T06:29:35;4.28;;;1.50;;
64686;SDS011;51113;53.646;-113.674;2022-08-14T06:32:05;3.30;;;1.17;;
64686;SDS011;51113;53.646;-113.674;2022-08-14T06:34:53;3.38;;;1.13;;
64686;SDS011;51113;53.646;-113.674;2022-08-14T06:37:38;1.73;;;1.23;;
64686;SDS011;51113;53.646;-113.674;2022-08-14T06:40:08;1.70;;;1.13;;
64686;SDS011;51113;53.646;-113.674;2022-08-14T06:43:00;10.57;;;1.30;;
64686;SDS011;51113;53.646;-113.674;2022-08-14T06:45:33;2.78;;;1.20;;
64686;SDS011;51113;53.646;-113.674;2022-08-14T06:48:05;2.22;;;1.35;;
64686;SDS011;51113;53.646;-113.674;2022-08-14T06:50:51;1.85;;;1.20;;
64686;SDS011;51113;53.646;-113.674;2022-08-14T06:55:53;5.68;;;1.20;;
64686;SDS011;51113;53.646;-113.674;2022-08-14T06:58:27;3.72;;;1.20;;
64686;SDS011;51113;53.646;-113.674;2022-08-14T07:00:58;2.10;;;0.98;;
64686;SDS011;51113;53.646;-113.674;2022-08-14T07:03:54;5.13;;;1.35;;
64686;SDS011;51113;53.646;-113.674;2022-08-14T07:06:48;4.43;;;1.30;;
64686;SDS011;51113;53.646;-113.674;2022-08-14T07:09:25;1.88;;;1.10;;
64686;SDS011;51113;53.646;-113.674;2022-08-14T07:12:15;3.25;;;1.33;;
64686;SDS011;51113;53.646;-113.674;2022-08-14T07:15:03;2.42;;;1.20;;
64686;SDS011;51113;53.646;-113.674;2022-08-14T07:17:33;11.13;;;1.20;;
64686;SDS011;51113;53.646;-113.674;2022-08-14T07:20:02;5.47;;;1.33;;
64686;SDS011;51113;53.646;-113.674;2022-08-14T07:22:33;1.83;;;1.20;;
64686;SDS011;51113;53.646;-113.674;2022-08-14T07:25:22;6.57;;;1.10;;
64686;SDS011;51113;53.646;-113.674;2022-08-14T07:27:58;1.63;;;1.08;;
64686;SDS011;51113;53.646;-113.674;2022-08-14T07:30:28;1.63;;;1.10;;
64686;SDS011;51113;53.646;-113.674;2022-08-14T07:33:00;11.48;;;1.38;;
64686;SDS011;51113;53.646;-113.674;2022-08-14T07:35:31;5.30;;;1.30;;
64686;SDS011;51113;53.646;-113.674;2022-08-14T07:38:15;6.00;;;1.20;;
64686;SDS011;51113;53.646;-113.674;2022-08-14T07:40:45;4.88;;;1.23;;
64686;SDS011;51113;53.646;-113.674;2022-08-14T07:43:18;4.57;;;1.10;;
64686;SDS011;51113;53.646;-113.674;2022-08-14T07:45:49;2.30;;;1.05;;
64686;SDS011;51113;53.646;-113.674;2022-08-14T07:48:19;1.35;;;1.10;;
64686;SDS011;51113;53.646;-113.674;2022-08-14T07:50:51;1.67;;;1.20;;
64686;SDS011;51113;53.646;-113.674;2022-08-14T07:53:36;5.45;;;1.55;;
64686;SDS011;51113;53.646;-113.674;2022-08-14T07:56:07;2.22;;;1.20;;
64686;SDS011;51113;53.646;-113.674;2022-08-14T07:58:57;1.65;;;1.35;;
64686;SDS011;51113;53.646;-113.674;2022-08-14T08:01:26;2.20;;;1.08;;
64686;SDS011;51113;53.646;-113.674;2022-08-14T08:03:57;2.58;;;1.30;;
64686;SDS011;51113;53.646;-113.674;2022-08-14T08:06:44;2.60;;;1.25;;
64686;SDS011;51113;53.646;-113.674;2022-08-14T08:09:17;2.55;;;1.20;;
64686;SDS011;51113;53.646;-113.674;2022-08-14T08:11:58;4.95;;;1.20;;
64686;SDS011;51113;53.646;-113.674;2022-08-14T08:14:33;4.97;;;1.00;;
64686;SDS011;51113;53.646;-113.674;2022-08-14T08:17:23;4.10;;;1.23;;
64686;SDS011;51113;53.646;-113.674;2022-08-14T08:20:00;2.95;;;1.40;;
64686;SDS011;51113;53.646;-113.674;2022-08-14T08:22:29;1.67;;;1.10;;
64686;SDS011;51113;53.646;-113.674;2022-08-14T08:24:58;2.30;;;1.30;;
64686;SDS011;51113;53.646;-113.674;2022-08-14T08:27:27;2.83;;;1.30;;
64686;SDS011;51113;53.646;-113.674;2022-08-14T08:30:02;1.58;;;1.10;;
64686;SDS011;51113;53.646;-113.674;2022-08-14T08:32:42;1.90;;;1.10;;
64686;SDS011;51113;53.646;-113.674;2022-08-14T08:35:24;5.45;;;1.30;;
64686;SDS011;51113;53.646;-113.674;2022-08-14T08:38:14;2.78;;;1.20;;
64686;SDS011;51113;53.646;-113.674;2022-08-14T08:41:05;4.13;;;1.13;;
64686;SDS011;51113;53.646;-113.674;2022-08-14T08:43:37;1.67;;;1.17;;
64686;SDS011;51113;53.646;-113.674;2022-08-14T08:46:13;1.85;;;1.10;;
64686;SDS011;51113;53.646;-113.674;2022-08-14T08:51:23;3.47;;;1.30;;
64686;SDS011;51113;53.646;-113.674;2022-08-14T08:56:46;2.03;;;1.05;;
64686;SDS011;51113;53.646;-113.674;2022-08-14T08:59:22;2.53;;;1.20;;
64686;SDS011;51113;53.646;-113.674;2022-08-14T09:01:57;2.40;;;1.50;;
64686;SDS011;51113;53.646;-113.674;2022-08-14T09:04:34;1.52;;;1.20;;
64686;SDS011;51113;53.646;-113.674;2022-08-14T09:07:18;2.88;;;1.30;;
64686;SDS011;51113;53.646;-113.674;2022-08-14T09:09:54;5.05;;;1.20;;
64686;SDS011;51113;53.646;-113.674;2022-08-14T09:12:26;2.80;;;1.20;;
64686;SDS011;51113;53.646;-113.674;2022-08-14T09:15:02;2.03;;;1.30;;
64686;SDS011;51113;53.646;-113.674;2022-08-14T09:17:41;2.28;;;1.20;;
64686;SDS011;51113;53.646;-113.674;2022-08-14T09:20:11;2.65;;;1.38;;
64686;SDS011;51113;53.646;-113.674;2022-08-14T09:22:55;1.50;;;1.23;;
64686;SDS011;51113;53.646;-113.674;2022-08-14T09:25:25;11.48;;;2.03;;
64686;SDS011;51113;53.646;-113.674;2022-08-14T09:28:15;16.70;;;1.65;;
64686;SDS011;51113;53.646;-113.674;2022-08-14T09:30:49;8.35;;;1.50;;
64686;SDS011;51113;53.646;-113.674;2022-08-14T09:53:01;2.00;;;1.35;;
64686;SDS011;51113;53.646;-113.674;2022-08-14T09:55:44;1.50;;;1.20;;
64686;SDS011;51113;53.646;-113.674;2022-08-14T09:58:34;2.55;;;1.48;;
64686;SDS011;51113;53.646;-113.674;2022-08-14T10:01:13;3.58;;;1.33;;
64686;SDS011;51113;53.646;-113.674;2022-08-14T10:03:50;2.40;;;1.38;;
64686;SDS011;51113;53.646;-113.674;2022-08-14T10:06:26;4.25;;;1.30;;
64686;SDS011;51113;53.646;-113.674;2022-08-14T10:08:57;3.80;;;1.13;;
64686;SDS011;51113;53.646;-113.674;2022-08-14T10:11:33;3.53;;;1.23;;
64686;SDS011;51113;53.646;-113.674;2022-08-14T10:14:15;2.38;;;1.45;;
64686;SDS011;51113;53.646;-113.674;2022-08-14T10:17:00;1.95;;;1.30;;
64686;SDS011;51113;53.646;-113.674;2022-08-14T10:19:34;2.63;;;1.65;;
64686;SDS011;51113;53.646;-113.674;2022-08-14T10:22:14;1.73;;;1.30;;
64686;SDS011;51113;53.646;-113.674;2022-08-14T10:25:09;2.95;;;1.50;;
64686;SDS011;51113;53.646;-113.674;2022-08-14T10:27:41;2.33;;;1.60;;
64686;SDS011;51113;53.646;-113.674;2022-08-14T10:30:22;2.33;;;1.20;;
64686;SDS011;51113;53.646;-113.674;2022-08-14T10:33:01;3.20;;;1.55;;
64686;SDS011;51113;53.646;-113.674;2022-08-14T10:35:42;2.42;;;1.30;;
64686;SDS011;51113;53.646;-113.674;2022-08-14T10:38:13;4.28;;;1.63;;
64686;SDS011;51113;53.646;-113.674;2022-08-14T10:41:13;2.50;;;1.60;;
64686;SDS011;51113;53.646;-113.674;2022-08-14T10:43:44;3.00;;;1.33;;
64686;SDS011;51113;53.646;-113.674;2022-08-14T10:49:41;2.50;;;1.38;;
64686;SDS011;51113;53.646;-113.674;2022-08-14T10:52:22;2.22;;;1.40;;
64686;SDS011;51113;53.646;-113.674;2022-08-14T10:57:46;4.57;;;1.60;;
64686;SDS011;51113;53.646;-113.674;2022-08-14T11:00:18;2.17;;;1.55;;
64686;SDS011;51113;53.646;-113.674;2022-08-14T11:03:02;2.58;;;1.55;;
64686;SDS011;51113;53.646;-113.674;2022-08-14T11:05:37;2.03;;;1.52;;
64686;SDS011;51113;53.646;-113.674;2022-08-14T11:08:09;1.90;;;1.30;;
64686;SDS011;51113;53.646;-113.674;2022-08-14T11:13:23;2.10;;;1.52;;
64686;SDS011;51113;53.646;-113.674;2022-08-14T11:15:57;3.00;;;1.38;;
64686;SDS011;51113;53.646;-113.674;2022-08-14T11:18:29;5.38;;;1.60;;
64686;SDS011;51113;53.646;-113.674;2022-08-14T11:21:06;4.70;;;1.63;;
64686;SDS011;51113;53.646;-113.674;2022-08-14T11:23:36;4.53;;;1.52;;
64686;SDS011;51113;53.646;-113.674;2022-08-14T11:26:09;7.72;;;1.83;;
64686;SDS011;51113;53.646;-113.674;2022-08-14T11:28:41;4.53;;;1.65;;
64686;SDS011;51113;53.646;-113.674;2022-08-14T11:31:17;12.35;;;1.92;;
64686;SDS011;51113;53.646;-113.674;2022-08-14T11:33:48;8.27;;;1.80;;
64686;SDS011;51113;53.646;-113.674;2022-08-14T11:36:21;3.30;;;1.60;;
64686;SDS011;51113;53.646;-113.674;2022-08-14T11:39:18;5.00;;;1.67;;
64686;SDS011;51113;53.646;-113.674;2022-08-14T11:41:59;2.10;;;1.40;;
64686;SDS011;51113;53.646;-113.674;2022-08-14T11:44:51;6.03;;;1.60;;
64686;SDS011;51113;53.646;-113.674;2022-08-14T11:47:26;2.58;;;1.50;;
64686;SDS011;51113;53.646;-113.674;2022-08-14T11:50:17;3.10;;;1.65;;
64686;SDS011;51113;53.646;-113.674;2022-08-14T11:53:03;2.75;;;1.40;;
64686;SDS011;51113;53.646;-113.674;2022-08-14T11:55:37;2.78;;;1.63;;
64686;SDS011;51113;53.646;-113.674;2022-08-14T11:58:09;4.03;;;1.83;;
64686;SDS011;51113;53.646;-113.674;2022-08-14T12:00:50;4.75;;;1.70;;
64686;SDS011;51113;53.646;-113.674;2022-08-14T12:03:40;5.55;;;1.73;;
64686;SDS011;51113;53.646;-113.674;2022-08-14T12:06:23;2.67;;;1.63;;
64686;SDS011;51113;53.646;-113.674;2022-08-14T12:09:05;7.82;;;1.85;;
64686;SDS011;51113;53.646;-113.674;2022-08-14T12:11:41;7.78;;;1.80;;
64686;SDS011;51113;53.646;-113.674;2022-08-14T12:14:13;22.55;;;2.40;;
64686;SDS011;51113;53.646;-113.674;2022-08-14T12:17:04;11.30;;;2.05;;
64686;SDS011;51113;53.646;-113.674;2022-08-14T12:19:49;21.30;;;2.20;;
64686;SDS011;51113;53.646;-113.674;2022-08-14T12:22:32;17.08;;;2.63;;
64686;SDS011;51113;53.646;-113.674;2022-08-14T12:25:06;4.30;;;1.65;;
64686;SDS011;51113;53.646;-113.674;2022-08-14T12:27:43;7.07;;;1.60;;
64686;SDS011;51113;53.646;-113.674;2022-08-14T12:30:35;5.20;;;1.60;;
64686;SDS011;51113;53.646;-113.674;2022-08-14T12:33:28;6.03;;;1.60;;
64686;SDS011;51113;53.646;-113.674;2022-08-14T12:36:01;6.90;;;1.60;;
64686;SDS011;51113;53.646;-113.674;2022-08-14T12:38:33;18.20;;;2.92;;
64686;SDS011;51113;53.646;-113.674;2022-08-14T12:41:10;13.38;;;2.47;;
64686;SDS011;51113;53.646;-113.674;2022-08-14T12:43:54;17.75;;;2.17;;
64686;SDS011;51113;53.646;-113.674;2022-08-14T12:48:56;10.82;;;2.13;;
64686;SDS011;51113;53.646;-113.674;2022-08-14T12:51:28;23.70;;;2.28;;
64686;SDS011;51113;53.646;-113.674;2022-08-14T12:53:57;10.90;;;2.38;;
64686;SDS011;51113;53.646;-113.674;2022-08-14T12:56:27;20.42;;;2.13;;
64686;SDS011;51113;53.646;-113.674;2022-08-14T12:58:59;17.25;;;2.28;;
64686;SDS011;51113;53.646;-113.674;2022-08-14T13:01:30;15.55;;;2.72;;
64686;SDS011;51113;53.646;-113.674;2022-08-14T13:04:20;14.10;;;2.20;;
64686;SDS011;51113;53.646;-113.674;2022-08-14T13:06:49;19.70;;;2.22;;
64686;SDS011;51113;53.646;-113.674;2022-08-14T13:09:19;12.60;;;2.50;;
64686;SDS011;51113;53.646;-113.674;2022-08-14T13:11:51;11.52;;;2.47;;
64686;SDS011;51113;53.646;-113.674;2022-08-14T13:14:41;9.77;;;2.28;;
64686;SDS011;51113;53.646;-113.674;2022-08-14T13:17:14;6.40;;;1.90;;
64686;SDS011;51113;53.646;-113.674;2022-08-14T13:19:44;10.90;;;2.45;;
64686;SDS011;51113;53.646;-113.674;2022-08-14T13:22:15;3.28;;;1.70;;
64686;SDS011;51113;53.646;-113.674;2022-08-14T13:24:59;12.70;;;1.92;;
64686;SDS011;51113;53.646;-113.674;2022-08-14T13:27:31;5.68;;;1.92;;
64686;SDS011;51113;53.646;-113.674;2022-08-14T13:30:06;3.40;;;1.90;;
64686;SDS011;51113;53.646;-113.674;2022-08-14T13:32:48;37.67;;;3.55;;
64686;SDS011;51113;53.646;-113.674;2022-08-14T13:35:18;12.32;;;2.22;;
64686;SDS011;51113;53.646;-113.674;2022-08-14T13:37:49;16.80;;;2.90;;
64686;SDS011;51113;53.646;-113.674;2022-08-14T13:40:20;33.38;;;3.55;;
64686;SDS011;51113;53.646;-113.674;2022-08-14T13:42:53;55.30;;;4.00;;
64686;SDS011;51113;53.646;-113.674;2022-08-14T13:45:24;57.40;;;4.80;;
64686;SDS011;51113;53.646;-113.674;2022-08-14T13:48:14;35.20;;;3.65;;
64686;SDS011;51113;53.646;-113.674;2022-08-14T13:50:58;34.60;;;3.28;;
64686;SDS011;51113;53.646;-113.674;2022-08-14T13:53:31;22.23;;;3.50;;
64686;SDS011;51113;53.646;-113.674;2022-08-14T13:56:08;30.33;;;3.40;;
64686;SDS011;51113;53.646;-113.674;2022-08-14T13:59:00;27.73;;;3.63;;
64686;SDS011;51113;53.646;-113.674;2022-08-14T14:01:30;30.75;;;2.70;;
64686;SDS011;51113;53.646;-113.674;2022-08-14T14:04:12;10.52;;;2.22;;
64686;SDS011;51113;53.646;-113.674;2022-08-14T14:06:46;7.95;;;2.60;;
64686;SDS011;51113;53.646;-113.674;2022-08-14T14:09:24;9.77;;;2.35;;
64686;SDS011;51113;53.646;-113.674;2022-08-14T14:12:18;13.27;;;2.40;;
64686;SDS011;51113;53.646;-113.674;2022-08-14T14:15:07;25.98;;;3.75;;
64686;SDS011;51113;53.646;-113.674;2022-08-14T14:17:43;25.20;;;3.33;;
64686;SDS011;51113;53.646;-113.674;2022-08-14T14:20:16;14.55;;;2.42;;
64686;SDS011;51113;53.646;-113.674;2022-08-14T14:23:02;5.07;;;2.55;;
64686;SDS011;51113;53.646;-113.674;2022-08-14T14:25:41;14.75;;;2.83;;
64686;SDS011;51113;53.646;-113.674;2022-08-14T14:28:24;9.60;;;2.28;;
64686;SDS011;51113;53.646;-113.674;2022-08-14T14:31:00;16.67;;;2.40;;
64686;SDS011;51113;53.646;-113.674;2022-08-14T14:33:33;13.30;;;2.50;;
64686;SDS011;51113;53.646;-113.674;2022-08-14T14:36:15;5.05;;;2.05;;
64686;SDS011;51113;53.646;-113.674;2022-08-14T14:38:57;8.82;;;2.42;;
64686;SDS011;51113;53.646;-113.674;2022-08-14T14:41:31;3.72;;;2.10;;
64686;SDS011;51113;53.646;-113.674;2022-08-14T14:44:07;4.65;;;2.10;;
64686;SDS011;51113;53.646;-113.674;2022-08-14T14:46:42;2.67;;;1.88;;
64686;SDS011;51113;53.646;-113.674;2022-08-14T14:49:19;4.28;;;2.13;;
64686;SDS011;51113;53.646;-113.674;2022-08-14T14:52:10;3.75;;;1.95;;
64686;SDS011;51113;53.646;-113.674;2022-08-14T14:54:48;5.78;;;1.85;;
64686;SDS011;51113;53.646;-113.674;2022-08-14T14:57:17;4.75;;;1.95;;
64686;SDS011;51113;53.646;-113.674;2022-08-14T14:59:46;4.22;;;1.90;;
64686;SDS011;51113;53.646;-113.674;2022-08-14T15:02:25;3.30;;;1.88;;
64686;SDS011;51113;53.646;-113.674;2022-08-14T15:04:58;2.78;;;2.08;;
64686;SDS011;51113;53.646;-113.674;2022-08-14T15:07:28;6.40;;;2.10;;
64686;SDS011;51113;53.646;-113.674;2022-08-14T15:09:58;8.63;;;1.98;;
64686;SDS011;51113;53.646;-113.674;2022-08-14T15:12:29;3.17;;;1.92;;
64686;SDS011;51113;53.646;-113.674;2022-08-14T15:15:18;4.15;;;2.15;;
64686;SDS011;51113;53.646;-113.674;2022-08-14T15:17:48;6.47;;;2.08;;
64686;SDS011;51113;53.646;-113.674;2022-08-14T15:20:20;3.28;;;1.80;;
64686;SDS011;51113;53.646;-113.674;2022-08-14T15:22:59;4.32;;;2.13;;
64686;SDS011;51113;53.646;-113.674;2022-08-14T15:25:38;3.63;;;1.98;;
64686;SDS011;51113;53.646;-113.674;2022-08-14T15:28:08;3.13;;;1.70;;
64686;SDS011;51113;53.646;-113.674;2022-08-14T15:30:47;2.13;;;1.58;;
64686;SDS011;51113;53.646;-113.674;2022-08-14T15:33:25;4.78;;;1.80;;
64686;SDS011;51113;53.646;-113.674;2022-08-14T15:36:32;2.33;;;1.55;;
64686;SDS011;51113;53.646;-113.674;2022-08-14T15:39:04;2.80;;;1.60;;
64686;SDS011;51113;53.646;-113.674;2022-08-14T15:41:33;2.40;;;1.67;;
64686;SDS011;51113;53.646;-113.674;2022-08-14T15:44:07;2.85;;;1.50;;
64686;SDS011;51113;53.646;-113.674;2022-08-14T15:46:51;2.40;;;1.50;;
64686;SDS011;51113;53.646;-113.674;2022-08-14T15:49:20;2.97;;;1.50;;
64686;SDS011;51113;53.646;-113.674;2022-08-14T15:51:58;2.90;;;1.75;;
64686;SDS011;51113;53.646;-113.674;2022-08-14T15:54:28;2.38;;;1.63;;